createdAt,value
2018-08-19T00:00:14.260Z,67.09
2018-08-19T00:01:23.565Z,66.03
2018-08-19T00:02:32.871Z,65.94
2018-08-19T00:03:42.445Z,65.36
2018-08-19T00:04:52.016Z,65.65
2018-08-19T00:06:01.588Z,64.89
2018-08-19T00:07:11.161Z,64.59
2018-08-19T00:08:21.002Z,64.28
2018-08-19T00:09:31.116Z,63.51
2018-08-19T00:10:40.957Z,62.84
2018-08-19T00:11:50.801Z,61.69
2018-08-19T00:13:00.653Z,61.11
2018-08-19T00:14:10.502Z,60.63
2018-08-19T00:15:20.340Z,60.92
2018-08-19T00:16:29.913Z,59.96
2018-08-19T00:17:39.757Z,59.77
2018-08-19T00:18:49.070Z,60.25
2018-08-19T00:19:58.643Z,59.29
2018-08-19T00:21:08.751Z,59.86
2018-08-19T00:22:17.788Z,59.29
2018-08-19T00:23:27.383Z,59.48
2018-08-19T00:24:37.516Z,58.71
2018-08-19T00:25:47.085Z,58.71
2018-08-19T00:26:56.658Z,58.52
2018-08-19T00:28:06.497Z,58.62
2018-08-19T00:29:16.677Z,58.62
2018-08-19T00:30:26.254Z,58.71
2018-08-19T00:31:36.371Z,58.62
2018-08-19T00:32:45.952Z,58.71
2018-08-19T00:33:55.259Z,58.62
2018-08-19T00:35:04.885Z,58.71
2018-08-19T00:36:14.453Z,58.91
2018-08-19T00:37:24.292Z,58.71
2018-08-19T00:38:33.867Z,58.14
2018-08-19T00:39:43.443Z,58.42
2018-08-19T00:40:53.614Z,58.33
2018-08-19T00:42:03.740Z,57.85
2018-08-19T00:43:13.590Z,58.14
2018-08-19T00:44:23.166Z,58.33
2018-08-19T00:45:33.303Z,57.85
2018-08-19T00:46:43.143Z,58.23
2018-08-19T00:47:52.989Z,57.75
2018-08-19T00:49:02.564Z,57.75
2018-08-19T00:50:12.143Z,57.56
2018-08-19T00:51:21.992Z,57.37
2018-08-19T00:52:31.838Z,57.56
2018-08-19T00:53:41.140Z,57.65
2018-08-19T00:54:50.981Z,57.37
2018-08-19T00:56:00.025Z,57.08
2018-08-19T00:57:09.604Z,57.65
2018-08-19T00:58:19.441Z,57.28
2018-08-19T00:59:29.557Z,57.08
2018-08-19T01:00:39.671Z,57.65
2018-08-19T01:01:49.251Z,57.08
2018-08-19T01:02:59.094Z,56.79
2018-08-19T01:04:09.213Z,56.79
2018-08-19T01:05:18.520Z,56.7
2018-08-19T01:06:27.820Z,56.31
2018-08-19T01:07:37.657Z,56.31
2018-08-19T01:08:47.223Z,56.79
2018-08-19T01:09:56.581Z,56.51
2018-08-19T01:11:06.431Z,56.79
2018-08-19T01:12:16.265Z,56.6
2018-08-19T01:13:26.109Z,56.51
2018-08-19T01:14:35.411Z,56.6
2018-08-19T01:15:44.986Z,56.7
2018-08-19T01:16:54.295Z,56.98
2018-08-19T01:18:03.869Z,56.79
2018-08-19T01:19:13.729Z,56.98
2018-08-19T01:20:23.574Z,57.08
2018-08-19T01:21:33.693Z,56.7
2018-08-19T01:22:43.271Z,57.85
2018-08-19T01:23:52.954Z,57.08
2018-08-19T01:25:02.528Z,57.37
2018-08-19T01:26:12.105Z,57.46
2018-08-19T01:27:21.143Z,56.89
2018-08-19T01:28:30.712Z,57.18
2018-08-19T01:29:40.558Z,56.79
2018-08-19T01:30:50.404Z,56.79
2018-08-19T01:32:00.254Z,56.7
2018-08-19T01:33:10.384Z,56.7
2018-08-19T01:34:20.507Z,57.37
2018-08-19T01:35:30.646Z,57.46
2018-08-19T01:36:39.675Z,56.7
2018-08-19T01:37:49.796Z,56.51
2018-08-19T01:38:59.376Z,57.28
2018-08-19T01:40:08.950Z,57.37
2018-08-19T01:41:19.070Z,57.18
2018-08-19T01:42:28.645Z,56.98
2018-08-19T01:43:38.217Z,57.18
2018-08-19T01:44:47.526Z,57.56
2018-08-19T01:45:57.635Z,57.18
2018-08-19T01:47:07.209Z,57.08
2018-08-19T01:48:17.045Z,57.85
2018-08-19T01:49:26.345Z,57.85
2018-08-19T01:50:35.652Z,57.85
2018-08-19T01:51:45.537Z,58.14
2018-08-19T01:52:54.579Z,57.37
2018-08-19T01:54:04.155Z,57.85
2018-08-19T01:55:14.270Z,57.95
2018-08-19T01:56:24.115Z,58.33
2018-08-19T01:57:33.959Z,58.14
2018-08-19T01:58:43.535Z,57.85
2018-08-19T01:59:53.107Z,58.33
2018-08-19T02:01:02.678Z,57.85
2018-08-19T02:02:12.266Z,57.56
2018-08-19T02:03:21.569Z,58.14
2018-08-19T02:04:31.467Z,58.04
2018-08-19T02:05:41.314Z,58.23
2018-08-19T02:06:50.348Z,58.14
2018-08-19T02:08:00.195Z,57.75
2018-08-19T02:09:10.037Z,58.33
2018-08-19T02:10:19.876Z,57.95
2018-08-19T02:11:29.451Z,58.14
2018-08-19T02:12:38.491Z,57.75
2018-08-19T02:13:48.336Z,57.75
2018-08-19T02:14:57.902Z,57.85
2018-08-19T02:16:07.476Z,57.65
2018-08-19T02:17:17.316Z,58.42
2018-08-19T02:18:27.163Z,57.85
2018-08-19T02:19:36.739Z,57.46
2018-08-19T02:20:46.131Z,58.04
2018-08-19T02:21:56.343Z,57.75
2018-08-19T02:23:06.465Z,58.14
2018-08-19T02:24:16.039Z,58.14
2018-08-19T02:25:25.880Z,58.14
2018-08-19T02:26:35.455Z,57.95
2018-08-19T02:27:45.295Z,58.14
2018-08-19T02:28:54.866Z,58.14
2018-08-19T02:30:04.168Z,58.33
2018-08-19T02:31:14.012Z,57.37
2018-08-19T02:32:24.129Z,56.79
2018-08-19T02:33:33.714Z,57.95
2018-08-19T02:34:42.752Z,57.56
2018-08-19T02:35:52.332Z,57.95
2018-08-19T02:37:02.174Z,57.46
2018-08-19T02:38:12.289Z,57.56
2018-08-19T02:39:21.870Z,56.79
2018-08-19T02:40:32.026Z,56.79
2018-08-19T02:41:41.871Z,57.18
2018-08-19T02:42:51.226Z,56.7
2018-08-19T02:44:01.335Z,56.89
2018-08-19T02:45:10.917Z,56.67
2018-08-19T02:46:20.761Z,56.02
2018-08-19T02:47:30.609Z,55.83
2018-08-19T02:48:40.184Z,56.02
2018-08-19T02:49:50.298Z,56.19
2018-08-19T02:51:00.142Z,56.02
2018-08-19T02:52:09.451Z,55.83
2018-08-19T02:53:19.028Z,55.83
2018-08-19T02:54:28.335Z,55.35
2018-08-19T02:55:37.930Z,55.93
2018-08-19T02:56:47.784Z,55.64
2018-08-19T02:57:57.357Z,55.55
2018-08-19T02:59:07.214Z,55.26
2018-08-19T03:00:17.056Z,55.26
2018-08-19T03:01:26.905Z,55.74
2018-08-19T03:02:36.761Z,55.55
2018-08-19T03:03:46.349Z,55.83
2018-08-19T03:04:56.199Z,55.83
2018-08-19T03:06:06.051Z,55.35
2018-08-19T03:07:15.627Z,56.22
2018-08-19T03:08:24.936Z,55.45
2018-08-19T03:09:34.788Z,55.35
2018-08-19T03:10:44.633Z,55.45
2018-08-19T03:11:53.936Z,55.35
2018-08-19T03:13:03.785Z,55.64
2018-08-19T03:14:13.364Z,55.74
2018-08-19T03:15:23.483Z,56.02
2018-08-19T03:16:33.055Z,55.93
2018-08-19T03:17:42.901Z,55.64
2018-08-19T03:18:53.010Z,56.12
2018-08-19T03:20:02.586Z,55.64
2018-08-19T03:21:12.446Z,56.02
2018-08-19T03:22:22.287Z,56.02
2018-08-19T03:23:31.870Z,56.02
2018-08-19T03:24:41.448Z,56.22
2018-08-19T03:25:51.557Z,55.74
2018-08-19T03:27:01.399Z,56.22
2018-08-19T03:28:10.978Z,55.74
2018-08-19T03:29:20.329Z,56.31
2018-08-19T03:30:29.639Z,56.02
2018-08-19T03:31:39.792Z,56.22
2018-08-19T03:32:49.651Z,55.93
2018-08-19T03:33:59.516Z,56.02
2018-08-19T03:35:09.379Z,56.22
2018-08-19T03:36:18.978Z,56.02
2018-08-19T03:37:28.835Z,56.31
2018-08-19T03:38:38.689Z,56.79
2018-08-19T03:39:48.530Z,56.6
2018-08-19T03:40:58.374Z,56.51
2018-08-19T03:42:08.221Z,56.7
2018-08-19T03:43:18.076Z,56.22
2018-08-19T03:44:27.923Z,56.79
2018-08-19T03:45:38.030Z,56.41
2018-08-19T03:46:47.873Z,56.7
2018-08-19T03:47:57.178Z,56.7
2018-08-19T03:49:06.764Z,56.98
2018-08-19T03:50:16.876Z,56.31
2018-08-19T03:51:26.183Z,56.31
2018-08-19T03:52:35.761Z,56.79
2018-08-19T03:53:45.330Z,56.89
2018-08-19T03:54:55.467Z,57.18
2018-08-19T03:56:05.323Z,56.6
2018-08-19T03:57:14.893Z,56.98
2018-08-19T03:58:24.471Z,56.7
2018-08-19T03:59:34.328Z,56.6
2018-08-19T04:00:44.181Z,56.89
2018-08-19T04:01:54.033Z,56.79
2018-08-19T04:03:03.885Z,56.51
2018-08-19T04:04:12.917Z,57.37
2018-08-19T04:05:23.037Z,57.28
2018-08-19T04:06:32.074Z,57.46
2018-08-19T04:07:41.652Z,57.85
2018-08-19T04:08:51.773Z,57.46
2018-08-19T04:10:01.668Z,57.37
2018-08-19T04:11:10.704Z,57.37
2018-08-19T04:12:20.553Z,57.37
2018-08-19T04:13:30.408Z,57.85
2018-08-19T04:14:40.244Z,57.85
2018-08-19T04:15:49.275Z,57.28
2018-08-19T04:16:59.407Z,56.79
2018-08-19T04:18:08.988Z,57.37
2018-08-19T04:19:17.753Z,57.37
2018-08-19T04:20:27.327Z,57.65
2018-08-19T04:21:36.898Z,57.65
2018-08-19T04:22:46.201Z,57.28
2018-08-19T04:23:55.508Z,57.46
2018-08-19T04:25:04.812Z,57.46
2018-08-19T04:26:14.118Z,57.37
2018-08-19T04:27:24.247Z,57.46
2018-08-19T04:28:34.089Z,57.46
2018-08-19T04:29:43.930Z,57.18
2018-08-19T04:30:53.508Z,57.08
2018-08-19T04:32:03.084Z,57.37
2018-08-19T04:33:12.665Z,56.98
2018-08-19T04:34:21.968Z,57.18
2018-08-19T04:35:31.817Z,56.79
2018-08-19T04:36:41.931Z,57.37
2018-08-19T04:37:52.039Z,57.08
2018-08-19T04:39:01.683Z,57.08
2018-08-19T04:40:11.807Z,57.08
2018-08-19T04:41:21.924Z,57.37
2018-08-19T04:42:31.510Z,56.79
2018-08-19T04:43:41.638Z,56.79
2018-08-19T04:44:51.238Z,56.89
2018-08-19T04:46:00.540Z,56.41
2018-08-19T04:47:09.845Z,56.7
2018-08-19T04:48:19.686Z,56.79
2018-08-19T04:49:29.534Z,56.89
2018-08-19T04:50:39.640Z,56.79
2018-08-19T04:51:49.753Z,56.79
2018-08-19T04:52:59.599Z,56.7
2018-08-19T04:54:09.171Z,57.08
2018-08-19T04:55:19.291Z,56.79
2018-08-19T04:56:29.146Z,56.7
2018-08-19T04:57:39.274Z,56.79
2018-08-19T04:58:48.587Z,57.65
2018-08-19T04:59:58.430Z,57.18
2018-08-19T05:01:08.545Z,57.28
2018-08-19T05:02:19.030Z,57.18
2018-08-19T05:03:28.927Z,57.28
2018-08-19T05:04:38.231Z,57.46
2018-08-19T05:05:47.545Z,57.37
2018-08-19T05:06:57.739Z,57.95
2018-08-19T05:08:07.843Z,57.95
2018-08-19T05:09:18.844Z,57.28
2018-08-19T05:10:28.747Z,57.46
2018-08-19T05:11:38.592Z,57.75
2018-08-19T05:12:47.630Z,58.14
2018-08-19T05:13:57.479Z,57.95
2018-08-19T05:15:06.776Z,57.65
2018-08-19T05:16:16.620Z,57.95
2018-08-19T05:17:26.203Z,58.07
2018-08-19T05:18:35.773Z,58.17
2018-08-19T05:19:45.618Z,58.36
2018-08-19T05:20:55.468Z,58.04
2018-08-19T05:22:05.052Z,58.26
2018-08-19T05:23:15.167Z,58.04
2018-08-19T05:24:25.012Z,57.97
2018-08-19T05:25:34.862Z,58.14
2018-08-19T05:26:44.438Z,58.36
2018-08-19T05:27:53.469Z,58.14
2018-08-19T05:29:03.316Z,57.75
2018-08-19T05:30:13.166Z,57.95
2018-08-19T05:31:22.793Z,57.85
2018-08-19T05:32:32.445Z,58.33
2018-08-19T05:33:42.022Z,58.17
2018-08-19T05:34:51.873Z,58.74
2018-08-19T05:36:01.181Z,58.33
2018-08-19T05:37:11.096Z,58.36
2018-08-19T05:38:21.226Z,58.74
2018-08-19T05:39:30.803Z,58.45
2018-08-19T05:40:40.930Z,58.64
2018-08-19T05:41:49.962Z,58.64
2018-08-19T05:42:59.044Z,58.74
2018-08-19T05:44:08.616Z,58.64
2018-08-19T05:45:18.471Z,58.55
2018-08-19T05:46:28.582Z,58.84
2018-08-19T05:47:38.157Z,58.55
2018-08-19T05:48:48.283Z,58.55
2018-08-19T05:49:58.128Z,58.64
2018-08-19T05:51:07.973Z,58.74
2018-08-19T05:52:18.099Z,58.94
2018-08-19T05:53:27.693Z,59.32
2018-08-19T05:54:37.543Z,59.41
2018-08-19T05:55:47.113Z,59.51
2018-08-19T05:56:56.419Z,59.61
2018-08-19T05:58:05.993Z,59.99
2018-08-19T05:59:15.840Z,59.89
2018-08-19T06:00:25.694Z,59.8
2018-08-19T06:01:35.820Z,59.7
2018-08-19T06:02:45.670Z,60.18
2018-08-19T06:03:55.527Z,60.08
2018-08-19T06:05:05.106Z,60.47
2018-08-19T06:06:14.952Z,60.38
2018-08-19T06:07:24.855Z,60.47
2018-08-19T06:08:35.195Z,60.57
2018-08-19T06:09:45.312Z,61.05
2018-08-19T06:10:55.164Z,60.85
2018-08-19T06:12:05.280Z,60.85
2018-08-19T06:13:14.851Z,61.14
2018-08-19T06:14:24.159Z,60.95
2018-08-19T06:15:33.726Z,60.95
2018-08-19T06:16:43.871Z,61.14
2018-08-19T06:17:53.226Z,61.33
2018-08-19T06:19:02.806Z,61.27
2018-08-19T06:20:12.394Z,60.98
2018-08-19T06:21:21.996Z,60.88
2018-08-19T06:22:31.549Z,60.88
2018-08-19T06:23:41.400Z,60.66
2018-08-19T06:24:50.709Z,61.36
2018-08-19T06:26:00.616Z,61.14
2018-08-19T06:27:10.465Z,61.08
2018-08-19T06:28:20.046Z,61.17
2018-08-19T06:29:29.080Z,61.65
2018-08-19T06:30:39.208Z,61.55
2018-08-19T06:31:48.796Z,61.46
2018-08-19T06:32:58.636Z,61.46
2018-08-19T06:34:07.944Z,61.75
2018-08-19T06:35:17.784Z,61.94
2018-08-19T06:36:27.421Z,62.23
2018-08-19T06:37:37.227Z,62.23
2018-08-19T06:38:47.103Z,62.42
2018-08-19T06:39:56.679Z,62.81
2018-08-19T06:41:06.863Z,62.84
2018-08-19T06:42:16.977Z,62.99
2018-08-19T06:43:26.701Z,62.99
2018-08-19T06:44:36.005Z,63.09
2018-08-19T06:45:45.316Z,63.41
2018-08-19T06:46:54.939Z,62.81
2018-08-19T06:48:04.790Z,63.02
2018-08-19T06:49:14.636Z,63.32
2018-08-19T06:50:23.668Z,64.37
2018-08-19T06:51:33.795Z,64.18
2018-08-19T06:52:43.639Z,64.09
2018-08-19T06:53:53.221Z,64.47
2018-08-19T06:55:02.800Z,65.14
2018-08-19T06:56:12.918Z,64.66
2018-08-19T06:57:22.492Z,63.99
2018-08-19T06:58:32.394Z,64.47
2018-08-19T06:59:42.237Z,64.18
2018-08-19T07:00:52.090Z,64.37
2018-08-19T07:02:01.664Z,64.85
2018-08-19T07:03:11.327Z,64.85
2018-08-19T07:04:21.744Z,65.14
2018-08-19T07:05:31.049Z,65.72
2018-08-19T07:06:40.901Z,66.1
2018-08-19T07:07:50.209Z,65.43
2018-08-19T07:09:00.333Z,65.91
2018-08-19T07:10:09.921Z,65.81
2018-08-19T07:11:19.496Z,66.42
2018-08-19T07:12:28.813Z,65.75
2018-08-19T07:13:39.205Z,65.84
2018-08-19T07:14:48.775Z,66.81
2018-08-19T07:15:58.678Z,67.48
2018-08-19T07:17:08.265Z,67.58
2018-08-19T07:18:18.111Z,67.86
2018-08-19T07:19:27.958Z,67.96
2018-08-19T07:20:37.806Z,67.86
2018-08-19T07:21:47.653Z,68.25
2018-08-19T07:22:56.954Z,68.67
2018-08-19T07:24:06.529Z,68.54
2018-08-19T07:25:15.563Z,69.34
2018-08-19T07:26:25.140Z,69.53
2018-08-19T07:27:35.035Z,69.24
2018-08-19T07:28:44.617Z,69.44
2018-08-19T07:29:54.597Z,70.11
2018-08-19T07:31:04.445Z,70.3
2018-08-19T07:32:13.748Z,70.11
2018-08-19T07:33:23.609Z,70.4
2018-08-19T07:34:32.922Z,70.68
2018-08-19T07:35:42.773Z,70.68
2018-08-19T07:36:52.433Z,71.17
2018-08-19T07:38:02.762Z,71.17
2018-08-19T07:39:12.939Z,71.65
2018-08-19T07:40:22.518Z,71.84
2018-08-19T07:41:32.705Z,71.88
2018-08-19T07:42:42.551Z,71.78
2018-08-19T07:43:51.941Z,71.97
2018-08-19T07:45:02.042Z,72.65
2018-08-19T07:46:11.354Z,72.74
2018-08-19T07:47:20.935Z,73.13
2018-08-19T07:48:30.794Z,73.61
2018-08-19T07:49:40.381Z,73.42
2018-08-19T07:50:49.429Z,73.22
2018-08-19T07:51:59.280Z,74.09
2018-08-19T07:53:08.850Z,73.71
2018-08-19T07:54:18.690Z,74.38
2018-08-19T07:55:28.002Z,74.76
2018-08-19T07:56:37.594Z,74.86
2018-08-19T07:57:47.170Z,75.63
2018-08-19T07:58:57.026Z,75.63
2018-08-19T08:00:06.875Z,74.96
2018-08-19T08:01:16.221Z,75.63
2018-08-19T08:02:26.247Z,75.63
2018-08-19T08:03:36.095Z,75.73
2018-08-19T08:04:45.943Z,75.63
2018-08-19T08:05:55.516Z,75.73
2018-08-19T08:07:05.371Z,75.63
2018-08-19T08:08:15.222Z,75.48
2018-08-19T08:09:25.360Z,75.38
2018-08-19T08:10:35.479Z,76.15
2018-08-19T08:11:45.596Z,76.11
2018-08-19T08:12:55.176Z,76.34
2018-08-19T08:14:04.494Z,76.15
2018-08-19T08:15:13.800Z,76.63
2018-08-19T08:16:23.380Z,76.15
2018-08-19T08:17:33.499Z,76.73
2018-08-19T08:18:43.350Z,76.34
2018-08-19T08:19:52.927Z,76.82
2018-08-19T08:21:02.834Z,77.11
2018-08-19T08:22:12.943Z,77.11
2018-08-19T08:23:23.074Z,77.31
2018-08-19T08:24:32.647Z,77.5
2018-08-19T08:25:41.962Z,77.78
2018-08-19T08:26:52.090Z,77.01
2018-08-19T08:28:01.669Z,77.83
2018-08-19T08:29:11.391Z,77.78
2018-08-19T08:30:21.177Z,77.73
2018-08-19T08:31:31.022Z,77.83
2018-08-19T08:32:40.054Z,77.34
2018-08-19T08:33:49.360Z,78.4
2018-08-19T08:34:59.210Z,77.92
2018-08-19T08:36:08.793Z,78.31
2018-08-19T08:37:18.684Z,78.4
2018-08-19T08:38:28.536Z,77.92
2018-08-19T08:39:38.117Z,78.21
2018-08-19T08:40:48.465Z,78.98
2018-08-19T08:41:58.345Z,78.79
2018-08-19T08:43:07.967Z,78.98
2018-08-19T08:44:17.547Z,78.79
2018-08-19T08:45:26.582Z,78.88
2018-08-19T08:46:36.161Z,78.88
2018-08-19T08:47:45.998Z,78.79
2018-08-19T08:48:56.189Z,79.85
2018-08-19T08:50:05.772Z,79.41
2018-08-19T08:51:15.100Z,79.66
2018-08-19T08:52:24.676Z,79.69
2018-08-19T08:53:34.803Z,80.08
2018-08-19T08:54:44.385Z,80.08
2018-08-19T08:55:54.234Z,80.27
2018-08-19T08:57:03.810Z,80.56
2018-08-19T08:58:13.661Z,80.46
2018-08-19T08:59:23.506Z,80.56
2018-08-19T09:00:33.362Z,80.46
2018-08-19T09:01:42.945Z,80.56
2018-08-19T09:02:51.987Z,80.94
2018-08-19T09:04:01.322Z,80.46
2018-08-19T09:05:10.635Z,80.85
2018-08-19T09:06:20.801Z,80.56
2018-08-19T09:07:30.648Z,80.6
2018-08-19T09:08:39.961Z,81.18
2018-08-19T09:09:49.806Z,81.27
2018-08-19T09:10:59.107Z,81.47
2018-08-19T09:12:08.683Z,81.47
2018-08-19T09:13:18.799Z,81.76
2018-08-19T09:14:28.385Z,82.05
2018-08-19T09:15:38.506Z,82.43
2018-08-19T09:16:47.813Z,82.62
2018-08-19T09:17:57.667Z,82.43
2018-08-19T09:19:06.978Z,82.24
2018-08-19T09:20:16.905Z,82.53
2018-08-19T09:21:27.022Z,82.53
2018-08-19T09:22:36.607Z,82.53
2018-08-19T09:23:46.720Z,82.62
2018-08-19T09:24:56.295Z,83.59
2018-08-19T09:26:05.605Z,83.5
2018-08-19T09:27:15.187Z,83.4
2018-08-19T09:28:25.035Z,84.17
2018-08-19T09:29:34.884Z,83.92
2018-08-19T09:30:44.998Z,84.75
2018-08-19T09:31:54.851Z,84.17
2018-08-19T09:33:04.941Z,84.36
2018-08-19T09:34:15.142Z,84.36
2018-08-19T09:35:24.985Z,84.98
2018-08-19T09:36:34.847Z,84.98
2018-08-19T09:37:44.155Z,84.5
2018-08-19T09:38:54.000Z,84.89
2018-08-19T09:40:03.849Z,84.69
2018-08-19T09:41:13.969Z,84.74
2018-08-19T09:42:23.276Z,85.02
2018-08-19T09:43:33.399Z,85.5
2018-08-19T09:44:43.248Z,85.02
2018-08-19T09:45:52.553Z,85.22
2018-08-19T09:47:02.402Z,85.41
2018-08-19T09:48:12.522Z,85.5
2018-08-19T09:49:21.562Z,85.5
2018-08-19T09:50:30.870Z,85.5
2018-08-19T09:51:41.009Z,85.5
2018-08-19T09:52:50.850Z,85.99
2018-08-19T09:54:00.691Z,85.22
2018-08-19T09:55:10.591Z,85.7
2018-08-19T09:56:20.169Z,85.12
2018-08-19T09:57:29.806Z,85.22
2018-08-19T09:58:39.817Z,85.6
2018-08-19T09:59:49.943Z,85.41
2018-08-19T10:00:59.797Z,85.41
2018-08-19T10:02:09.375Z,85.41
2018-08-19T10:03:18.682Z,85.41
2018-08-19T10:04:28.265Z,85.12
2018-08-19T10:05:38.397Z,85.16
2018-08-19T10:06:48.521Z,85.45
2018-08-19T10:07:57.985Z,85.16
2018-08-19T10:09:07.292Z,85.45
2018-08-19T10:10:16.867Z,85.31
2018-08-19T10:11:26.723Z,86.18
2018-08-19T10:12:36.314Z,86.28
2018-08-19T10:13:46.430Z,86.38
2018-08-19T10:14:55.863Z,86.38
2018-08-19T10:16:05.708Z,85.8
2018-08-19T10:17:15.833Z,85.99
2018-08-19T10:18:25.146Z,85.41
2018-08-19T10:19:34.188Z,85.27
2018-08-19T10:20:44.035Z,85.66
2018-08-19T10:21:53.883Z,86.24
2018-08-19T10:23:04.010Z,86.08
2018-08-19T10:24:14.148Z,85.66
2018-08-19T10:25:23.993Z,85.66
2018-08-19T10:26:33.594Z,86.04
2018-08-19T10:27:42.910Z,85.99
2018-08-19T10:28:52.217Z,85.31
2018-08-19T10:30:01.528Z,85.22
2018-08-19T10:31:11.159Z,85.41
2018-08-19T10:32:21.150Z,85.99
2018-08-19T10:33:31.056Z,86.28
2018-08-19T10:34:40.903Z,85.31
2018-08-19T10:35:51.029Z,86.47
2018-08-19T10:37:00.876Z,85.7
2018-08-19T10:38:10.452Z,85.99
2018-08-19T10:39:20.300Z,85.6
2018-08-19T10:40:30.433Z,84.74
2018-08-19T10:41:40.548Z,84.58
2018-08-19T10:42:50.393Z,85.64
2018-08-19T10:43:59.706Z,85.45
2018-08-19T10:45:09.061Z,84.72
2018-08-19T10:46:19.351Z,85.01
2018-08-19T10:47:29.742Z,84.91
2018-08-19T10:48:39.604Z,85.11
2018-08-19T10:49:49.716Z,84.14
2018-08-19T10:50:59.573Z,85.01
2018-08-19T10:52:09.153Z,84.72
2018-08-19T10:53:19.079Z,84.24
2018-08-19T10:54:28.988Z,83.95
2018-08-19T10:55:38.568Z,84.24
2018-08-19T10:56:48.736Z,84.91
2018-08-19T10:57:58.586Z,84.72
2018-08-19T10:59:08.439Z,84.14
2018-08-19T11:00:18.289Z,84.82
2018-08-19T11:01:27.598Z,83.75
2018-08-19T11:02:37.497Z,84.72
2018-08-19T11:03:47.078Z,83.66
2018-08-19T11:04:56.933Z,84.09
2018-08-19T11:06:06.784Z,84.19
2018-08-19T11:07:16.643Z,83.99
2018-08-19T11:08:26.268Z,84.77
2018-08-19T11:09:36.113Z,84.09
2018-08-19T11:10:45.955Z,83.89
2018-08-19T11:11:55.538Z,84.09
2018-08-19T11:13:05.390Z,83.99
2018-08-19T11:14:15.505Z,83.41
2018-08-19T11:15:25.366Z,83.22
2018-08-19T11:16:34.947Z,83.22
2018-08-19T11:17:44.795Z,82.73
2018-08-19T11:18:54.646Z,83.61
2018-08-19T11:20:04.497Z,84.28
2018-08-19T11:21:14.358Z,83.22
2018-08-19T11:22:24.477Z,82.2
2018-08-19T11:23:34.058Z,83.45
2018-08-19T11:24:44.186Z,82.87
2018-08-19T11:25:53.493Z,82.87
2018-08-19T11:27:03.071Z,82.97
2018-08-19T11:28:12.656Z,82.97
2018-08-19T11:29:22.229Z,82.87
2018-08-19T11:30:31.807Z,82.33
2018-08-19T11:31:41.657Z,81.95
2018-08-19T11:32:51.234Z,82.33
2018-08-19T11:34:01.185Z,81.85
2018-08-19T11:35:11.167Z,81.56
2018-08-19T11:36:20.475Z,81.81
2018-08-19T11:37:30.321Z,82.33
2018-08-19T11:38:39.899Z,81.85
2018-08-19T11:39:49.487Z,81.85
2018-08-19T11:40:59.598Z,81.37
2018-08-19T11:42:09.183Z,80.92
2018-08-19T11:43:19.349Z,80.92
2018-08-19T11:44:29.944Z,80.73
2018-08-19T11:45:39.252Z,81.02
2018-08-19T11:46:48.828Z,80.15
2018-08-19T11:47:58.404Z,80.24
2018-08-19T11:49:08.520Z,80.44
2018-08-19T11:50:18.379Z,80.92
2018-08-19T11:51:28.222Z,81.7
2018-08-19T11:52:38.341Z,81.3
2018-08-19T11:53:47.917Z,79.95
2018-08-19T11:54:57.767Z,79.95
2018-08-19T11:56:07.344Z,79.66
2018-08-19T11:57:17.198Z,78.83
2018-08-19T11:58:26.780Z,78.59
2018-08-19T11:59:36.909Z,78.89
2018-08-19T12:00:47.041Z,79.02
2018-08-19T12:01:56.655Z,78.25
2018-08-19T12:03:06.997Z,77.96
2018-08-19T12:04:16.311Z,77.96
2018-08-19T12:05:25.619Z,78.74
2018-08-19T12:06:35.473Z,78.25
2018-08-19T12:07:45.599Z,77.67
2018-08-19T12:08:55.453Z,78.25
2018-08-19T12:10:05.312Z,78.74
2018-08-19T12:11:15.161Z,78.15
2018-08-19T12:12:24.472Z,78.44
2018-08-19T12:13:33.784Z,78.25
2018-08-19T12:14:43.368Z,78.05
2018-08-19T12:15:52.967Z,78.15
2018-08-19T12:17:02.871Z,77.32
2018-08-19T12:18:12.775Z,78.38
2018-08-19T12:19:22.621Z,76.15
2018-08-19T12:20:32.473Z,76.58
2018-08-19T12:21:41.521Z,76.39
2018-08-19T12:22:51.108Z,76.19
2018-08-19T12:24:00.691Z,76.68
2018-08-19T12:25:10.270Z,77.26
2018-08-19T12:26:19.860Z,76.68
2018-08-19T12:27:29.973Z,76.39
2018-08-19T12:28:40.528Z,76.29
2018-08-19T12:29:50.382Z,76.32
2018-08-19T12:30:59.961Z,76.23
2018-08-19T12:32:09.813Z,75.65
2018-08-19T12:33:19.936Z,76.04
2018-08-19T12:34:29.520Z,76.42
2018-08-19T12:35:39.374Z,77.2
2018-08-19T12:36:49.281Z,76.42
2018-08-19T12:37:58.896Z,76.14
2018-08-19T12:39:08.479Z,75.98
2018-08-19T12:40:18.338Z,74.33
2018-08-19T12:41:28.196Z,73.71
2018-08-19T12:42:38.323Z,73.32
2018-08-19T12:43:48.172Z,73.8
2018-08-19T12:44:57.803Z,73.32
2018-08-19T12:46:07.391Z,74
2018-08-19T12:47:17.254Z,73.32
2018-08-19T12:48:27.118Z,73.77
2018-08-19T12:49:36.703Z,73.71
2018-08-19T12:50:46.291Z,74.29
2018-08-19T12:51:55.608Z,73.8
2018-08-19T12:53:05.250Z,73.46
2018-08-19T12:54:15.108Z,73.55
2018-08-19T12:55:24.966Z,73.61
2018-08-19T12:56:35.096Z,74.29
2018-08-19T12:57:44.690Z,74.33
2018-08-19T12:58:54.810Z,73.16
2018-08-19T13:00:04.946Z,72.58
2018-08-19T13:01:14.846Z,72
2018-08-19T13:02:24.434Z,71.8
2018-08-19T13:03:34.028Z,72.39
2018-08-19T13:04:43.876Z,72.09
2018-08-19T13:05:53.193Z,72.19
2018-08-19T13:07:02.508Z,71.9
2018-08-19T13:08:12.557Z,72
2018-08-19T13:09:22.410Z,71.94
2018-08-19T13:10:32.265Z,72.09
2018-08-19T13:11:41.851Z,72.13
2018-08-19T13:12:51.449Z,72.52
2018-08-19T13:14:01.312Z,72.33
2018-08-19T13:15:10.628Z,71.06
2018-08-19T13:16:20.745Z,71.16
2018-08-19T13:17:30.322Z,72.13
2018-08-19T13:18:39.904Z,71.16
2018-08-19T13:19:49.226Z,70.97
2018-08-19T13:20:59.084Z,72.23
2018-08-19T13:22:08.659Z,73.1
2018-08-19T13:23:18.278Z,70.87
2018-08-19T13:24:28.669Z,71.26
2018-08-19T13:25:38.525Z,70.67
2018-08-19T13:26:48.383Z,71.06
2018-08-19T13:27:57.969Z,69.6
2018-08-19T13:29:08.091Z,69.45
2018-08-19T13:30:17.405Z,69.06
2018-08-19T13:31:27.256Z,69.67
2018-08-19T13:32:37.106Z,67.83
2018-08-19T13:33:46.961Z,69.29
2018-08-19T13:34:56.006Z,69.15
2018-08-19T13:36:05.857Z,68.48
2018-08-19T13:37:15.167Z,69.29
2018-08-19T13:38:25.191Z,69.35
2018-08-19T13:39:35.048Z,69.7
2018-08-19T13:40:44.925Z,69.6
2018-08-19T13:41:54.512Z,68.96
2018-08-19T13:43:04.094Z,68.7
2018-08-19T13:44:14.220Z,68.05
2018-08-19T13:45:24.548Z,67.47
2018-08-19T13:46:35.304Z,67.02
2018-08-19T13:47:44.618Z,65.27
2018-08-19T13:48:54.469Z,65.56
2018-08-19T13:50:04.054Z,65.75
2018-08-19T13:51:13.913Z,67.41
2018-08-19T13:52:24.043Z,65.46
2018-08-19T13:53:33.622Z,64.72
2018-08-19T13:54:43.217Z,65.11
2018-08-19T13:55:52.528Z,64.84
2018-08-19T13:57:01.850Z,64.94
2018-08-19T13:58:11.534Z,64.59
2018-08-19T13:59:21.142Z,63.09
2018-08-19T14:00:30.463Z,62.6
2018-08-19T14:01:40.049Z,62.6
2018-08-19T14:02:49.667Z,62.83
2018-08-19T14:03:59.525Z,62.38
2018-08-19T14:05:08.619Z,62.63
2018-08-19T14:06:18.751Z,62.6
2018-08-19T14:07:28.612Z,62.99
2018-08-19T14:08:37.664Z,62.12
2018-08-19T14:09:47.797Z,61.15
2018-08-19T14:10:57.118Z,61.4
2018-08-19T14:12:07.271Z,60.52
2018-08-19T14:13:16.669Z,61.11
2018-08-19T14:14:26.271Z,60.52
2018-08-19T14:15:36.403Z,59.48
2018-08-19T14:16:45.992Z,59.09
2018-08-19T14:17:55.587Z,59.7
2018-08-19T14:19:05.182Z,60
2018-08-19T14:20:14.508Z,60.52
2018-08-19T14:21:24.370Z,60.16
2018-08-19T14:22:33.969Z,60.06
2018-08-19T14:23:43.837Z,59.06
2018-08-19T14:24:52.891Z,58.89
2018-08-19T14:26:02.757Z,59.19
2018-08-19T14:27:12.717Z,58.31
2018-08-19T14:28:22.331Z,57.82
2018-08-19T14:29:31.922Z,56.68
2018-08-19T14:30:41.801Z,56.2
2018-08-19T14:31:51.956Z,56.48
2018-08-19T14:33:01.549Z,56.22
2018-08-19T14:34:11.427Z,56.97
2018-08-19T14:35:21.019Z,56.1
2018-08-19T14:36:30.612Z,56.74
2018-08-19T14:37:39.936Z,55.86
2018-08-19T14:38:49.802Z,54.98
2018-08-19T14:39:59.173Z,55.66
2018-08-19T14:41:09.779Z,55.76
2018-08-19T14:42:19.931Z,55.73
2018-08-19T14:43:29.791Z,54.88
2018-08-19T14:44:39.390Z,55.08
2018-08-19T14:45:48.978Z,55.76
2018-08-19T14:46:58.625Z,54.98
2018-08-19T14:48:08.757Z,54.49
2018-08-19T14:49:18.353Z,54
2018-08-19T14:50:27.410Z,54.2
2018-08-19T14:51:37.620Z,54.2
2018-08-19T14:52:46.663Z,53.61
2018-08-19T14:53:56.877Z,53.91
2018-08-19T14:55:06.471Z,53.78
2018-08-19T14:56:16.630Z,53.13
2018-08-19T14:57:26.231Z,53.13
2018-08-19T14:58:36.370Z,54.1
2018-08-19T14:59:46.236Z,54.88
2018-08-19T15:00:55.835Z,54.3